Time;durP1;ratioP1;P1;durP2;ratioP2;P2;SDS_P1;SDS_P2;PMS_P1;PMS_P2;Temp;Humidity;BMP_temperature;BMP_pressure;BME280_temperature;BME280_humidity;BME280_pressure;Samples;Min_cycle;Max_cycle;Signal;HPM_P1;HPM_P2
2022/09/11 00:00:28;;;;;;;4.73;1.20;;;13.00;99.90;;;;;;5140606;27;20186;-85
2022/09/11 00:02:54;;;;;;;1.40;0.87;;;;;;;;;;5140281;27;20191;-85
2022/09/11 00:05:20;;;;;;;2.63;1.00;;;13.10;99.90;;;;;;5140662;27;20202;-85
2022/09/11 00:07:46;;;;;;;2.50;0.90;;;;;;;;;;5140404;27;20187;-85
2022/09/11 00:10:12;;;;;;;2.67;0.93;;;13.10;99.90;;;;;;5140205;27;20197;-85
2022/09/11 00:12:38;;;;;;;3.03;0.90;;;;;;;;;;5138955;27;20567;-85
2022/09/11 00:15:06;;;;;;;3.07;1.13;;;13.10;99.90;;;;;;5139005;27;20228;-84
2022/09/11 00:17:32;;;;;;;2.50;0.87;;;13.10;99.90;;;;;;5138667;27;20175;-83
2022/09/11 00:20:00;;;;;;;1.30;0.93;;;;;;;;;;5140002;27;20204;-83
2022/09/11 00:22:26;;;;;;;2.40;1.27;;;13.00;99.90;;;;;;5138190;27;20194;-83
2022/09/11 00:24:53;;;;;;;4.27;1.70;;;13.10;99.90;;;;;;5137994;27;20543;-84
2022/09/11 00:27:19;;;;;;;3.43;1.03;;;13.00;99.90;;;;;;5137087;27;20578;-83
2022/09/11 00:29:45;;;;;;;1.70;1.10;;;13.00;99.90;;;;;;5136611;27;20185;-83
2022/09/11 00:32:11;;;;;;;2.20;1.00;;;12.90;99.90;;;;;;5136496;27;20203;-83
2022/09/11 00:34:38;;;;;;;3.10;1.20;;;;;;;;;;5136100;27;20182;-83
2022/09/11 00:37:04;;;;;;;3.63;1.40;;;12.80;99.90;;;;;;5137366;27;20194;-84
2022/09/11 00:39:31;;;;;;;4.10;1.20;;;;;;;;;;5138150;27;20202;-83
2022/09/11 00:41:57;;;;;;;2.93;1.23;;;12.70;99.90;;;;;;5138140;27;20672;-84
2022/09/11 00:44:26;;;;;;;2.90;1.10;;;12.70;99.90;;;;;;5137812;27;20174;-83
2022/09/11 00:46:55;;;;;;;2.57;0.93;;;12.70;99.90;;;;;;5138005;27;20175;-84
2022/09/11 00:49:38;;;;;;;5.70;1.50;;;12.70;99.90;;;;;;5138338;27;20175;-84
2022/09/11 00:52:15;;;;;;;1.70;1.20;;;12.70;99.90;;;;;;5138541;27;20547;-85
2022/09/11 00:54:45;;;;;;;1.83;0.90;;;12.70;99.90;;;;;;5138155;27;20162;-84
2022/09/11 00:57:11;;;;;;;1.97;1.30;;;12.70;99.90;;;;;;5137637;27;20529;-83
2022/09/11 00:59:40;;;;;;;2.67;1.10;;;12.70;99.90;;;;;;5137181;27;20194;-83
2022/09/11 01:02:12;;;;;;;3.00;1.10;;;12.70;99.90;;;;;;5135828;27;20215;-83
2022/09/11 01:04:38;;;;;;;3.20;1.10;;;;;;;;;;5137576;27;20183;-83
2022/09/11 01:07:04;;;;;;;2.60;1.30;;;;;;;;;;5137698;27;20629;-83
2022/09/11 01:09:32;;;;;;;3.87;1.40;;;12.70;99.90;;;;;;5136087;27;20194;-84
2022/09/11 01:11:58;;;;;;;3.70;1.20;;;;;;;;;;5137708;27;20205;-84
2022/09/11 01:14:48;;;;;;;4.77;1.30;;;12.80;99.90;;;;;;5136132;27;20182;-84
2022/09/11 01:17:24;;;;;;;2.43;1.17;;;12.70;99.90;;;;;;5136357;27;20174;-83
2022/09/11 01:20:30;;;;;;;4.10;1.23;;;12.70;99.90;;;;;;5136800;27;20207;-84
2022/09/11 01:23:42;;;;;;;2.90;1.40;;;12.70;99.90;;;;;;5107271;27;20230;-83
2022/09/11 01:26:52;;;;;;;3.53;1.40;;;12.80;99.90;;;;;;5074493;28;20185;-82
2022/09/11 01:29:30;;;;;;;3.53;1.30;;;12.70;99.90;;;;;;5074262;28;20179;-84
2022/09/11 01:32:14;;;;;;;2.97;1.50;;;12.60;99.90;;;;;;5132078;27;20225;-84
2022/09/11 01:34:56;;;;;;;2.33;1.40;;;12.50;99.90;;;;;;5136317;27;20266;-82
2022/09/11 01:37:30;;;;;;;3.80;1.53;;;12.50;99.90;;;;;;5137672;27;20249;-84
2022/09/11 01:40:03;;;;;;;2.30;1.30;;;12.40;99.90;;;;;;5139488;27;20225;-83
2022/09/11 01:42:33;;;;;;;2.83;1.50;;;12.50;99.90;;;;;;5137400;27;20550;-83
2022/09/11 01:45:00;;;;;;;4.70;1.50;;;;;;;;;;5136726;27;20175;-83
2022/09/11 01:47:27;;;;;;;2.60;1.53;;;12.50;99.90;;;;;;5137317;27;20155;-82
2022/09/11 01:50:19;;;;;;;1.77;1.37;;;12.50;99.90;;;;;;5137599;27;20171;-83
2022/09/11 06:15:04;;;;;;;7.27;2.10;;;12.50;99.90;;;;;;5117211;27;20272;-84
2022/09/11 06:17:29;;;;;;;2.67;2.00;;;12.50;99.90;;;;;;5117025;28;20201;-85
2022/09/11 06:19:55;;;;;;;3.77;2.30;;;12.60;99.90;;;;;;5115748;28;20179;-85
2022/09/11 06:22:21;;;;;;;4.50;2.47;;;12.60;99.90;;;;;;5116229;28;20256;-84
2022/09/11 06:24:47;;;;;;;2.60;2.10;;;12.60;99.90;;;;;;5120344;28;20172;-84
2022/09/11 06:27:14;;;;;;;4.07;2.10;;;12.70;99.90;;;;;;5118279;28;20179;-84
2022/09/11 06:29:40;;;;;;;1.73;1.63;;;12.80;99.90;;;;;;5113808;28;20320;-84
2022/09/11 06:32:06;;;;;;;2.20;1.80;;;12.80;99.90;;;;;;5114980;28;20207;-84
2022/09/11 06:34:32;;;;;;;3.23;2.17;;;12.80;99.90;;;;;;5112740;28;20191;-85
2022/09/11 06:36:57;;;;;;;2.23;1.80;;;12.80;99.90;;;;;;5114936;28;20167;-85
2022/09/11 06:39:23;;;;;;;2.03;1.43;;;12.80;99.90;;;;;;5113404;28;20239;-83
2022/09/11 06:41:49;;;;;;;2.53;1.50;;;12.90;99.90;;;;;;5112839;28;20286;-83
2022/09/11 06:44:15;;;;;;;2.87;1.53;;;12.90;99.90;;;;;;5113286;28;20207;-85
2022/09/11 06:53:41;;;;;;;2.40;1.20;;;13.00;99.90;;;;;;5074770;27;20521;-84
2022/09/11 06:56:11;;;;;;;2.13;1.60;;;13.00;99.90;;;;;;5074524;28;20177;-84
2022/09/11 06:58:38;;;;;;;1.30;1.20;;;13.10;99.90;;;;;;5073695;28;20161;-85
2022/09/11 07:01:11;;;;;;;2.40;1.37;;;13.30;99.90;;;;;;5073740;28;20205;-85
2022/09/11 07:03:37;;;;;;;1.67;1.50;;;13.30;99.90;;;;;;5073659;28;20267;-85
2022/09/11 07:06:03;;;;;;;2.63;1.30;;;;;;;;;;5075060;28;20219;-85
2022/09/11 07:08:29;;;;;;;1.43;1.33;;;13.40;99.90;;;;;;5082598;28;20176;-83
2022/09/11 07:10:55;;;;;;;2.03;1.47;;;;;;;;;;5078627;28;20259;-85
2022/09/11 07:13:23;;;;;;;2.37;1.67;;;13.30;99.90;;;;;;5078909;28;20665;-84
2022/09/11 07:15:49;;;;;;;3.07;1.60;;;13.40;99.90;;;;;;5074826;28;20173;-85
2022/09/11 07:18:14;;;;;;;2.60;1.40;;;13.60;99.90;;;;;;5081464;28;20177;-85
2022/09/11 07:20:40;;;;;;;2.20;1.30;;;;;;;;;;5082375;28;20185;-85
2022/09/11 07:23:07;;;;;;;3.13;1.43;;;13.70;99.90;;;;;;5077013;28;20177;-84
2022/09/11 07:25:37;;;;;;;3.03;1.13;;;13.70;99.90;;;;;;5075262;28;20180;-84
2022/09/11 07:28:03;;;;;;;2.07;1.30;;;13.70;99.90;;;;;;5078219;28;20561;-84
2022/09/11 07:30:29;;;;;;;3.23;1.60;;;13.70;99.90;;;;;;5074986;28;20543;-84
2022/09/11 07:32:55;;;;;;;3.13;1.40;;;;;;;;;;5076959;28;20223;-85
2022/09/11 07:35:21;;;;;;;1.37;1.27;;;13.80;99.90;;;;;;5078056;28;20588;-83
2022/09/11 07:37:47;;;;;;;2.00;1.43;;;13.80;99.90;;;;;;5079939;28;20169;-85
2022/09/11 07:40:14;;;;;;;3.63;1.50;;;;;;;;;;5080507;28;20219;-85
2022/09/11 07:42:40;;;;;;;3.03;1.43;;;;;;;;;;5079223;28;20554;-85
2022/09/11 07:45:07;;;;;;;2.33;1.30;;;14.00;99.90;;;;;;5078781;28;20589;-84
2022/09/11 07:47:33;;;;;;;2.80;1.60;;;;;;;;;;5077057;28;20187;-84
2022/09/11 07:49:59;;;;;;;5.83;1.53;;;14.40;99.90;;;;;;5057085;28;20185;-85
2022/09/11 07:52:25;;;;;;;3.40;1.53;;;14.70;99.90;;;;;;5075868;28;20208;-85
2022/09/11 07:54:51;;;;;;;3.03;1.30;;;14.70;99.90;;;;;;5075479;28;20169;-84
2022/09/11 07:57:18;;;;;;;3.53;1.27;;;14.60;99.90;;;;;;5070423;28;20189;-84
2022/09/11 07:59:45;;;;;;;2.47;1.50;;;14.70;99.90;;;;;;5071052;28;20227;-85
2022/09/11 08:02:11;;;;;;;3.30;1.73;;;14.80;99.90;;;;;;5070186;28;20209;-85
2022/09/11 08:04:37;;;;;;;2.70;1.60;;;;;;;;;;5059564;28;20575;-85
2022/09/11 08:07:03;;;;;;;2.43;1.57;;;14.70;99.90;;;;;;5058824;28;20233;-83
2022/09/11 08:09:29;;;;;;;2.80;1.47;;;14.60;99.90;;;;;;5057929;28;20186;-84
2022/09/11 08:11:57;;;;;;;2.60;1.67;;;14.60;99.90;;;;;;5058459;28;20302;-82
2022/09/11 08:14:24;;;;;;;2.73;1.50;;;14.60;99.90;;;;;;5059585;28;20605;-84
2022/09/11 08:16:50;;;;;;;2.07;1.37;;;14.70;99.90;;;;;;5057730;28;20181;-86
2022/09/11 08:19:21;;;;;;;2.33;1.53;;;14.70;99.90;;;;;;5057986;28;20182;-84
2022/09/11 08:21:48;;;;;;;1.97;1.53;;;14.80;99.90;;;;;;5058883;28;20217;-84
2022/09/11 08:24:19;;;;;;;2.27;1.60;;;15.00;99.90;;;;;;5058423;28;20181;-84
2022/09/11 08:26:45;;;;;;;3.00;1.53;;;15.10;99.90;;;;;;5057544;28;20185;-86
2022/09/11 08:29:11;;;;;;;2.07;1.27;;;15.10;99.90;;;;;;5058171;28;20182;-83
2022/09/11 08:31:37;;;;;;;3.50;1.30;;;;;;;;;;5058918;28;20546;-84
2022/09/11 08:34:03;;;;;;;2.37;1.20;;;15.10;99.90;;;;;;5057348;28;20183;-84
2022/09/11 08:36:28;;;;;;;3.83;1.70;;;15.00;99.90;;;;;;5057505;28;20632;-86
2022/09/11 08:38:54;;;;;;;2.00;1.67;;;14.90;99.90;;;;;;5057104;28;20236;-86
2022/09/11 08:41:40;;;;;;;3.73;1.53;;;14.90;99.90;;;;;;5057026;28;20213;-85
2022/09/11 08:44:08;;;;;;;1.73;1.33;;;14.90;99.90;;;;;;5058021;28;20159;-85
2022/09/11 08:46:40;;;;;;;2.10;1.47;;;15.10;99.90;;;;;;5057632;28;20190;-86
2022/09/11 08:49:23;;;;;;;3.53;1.40;;;15.20;99.90;;;;;;5056699;28;20178;-83
2022/09/11 08:51:50;;;;;;;2.83;1.40;;;15.30;99.90;;;;;;5056785;28;20223;-84
2022/09/11 08:54:30;;;;;;;2.90;1.40;;;15.30;99.90;;;;;;5057315;28;20558;-85
2022/09/11 08:57:04;;;;;;;1.93;1.40;;;15.40;99.90;;;;;;5056393;28;20171;-84
2022/09/11 09:00:09;;;;;;;2.43;1.50;;;15.50;99.90;;;;;;5056197;28;20184;-82
2022/09/11 09:03:06;;;;;;;2.57;1.50;;;15.70;99.90;;;;;;5038511;28;20206;-82
2022/09/11 09:06:14;;;;;;;4.90;1.80;;;15.80;99.90;;;;;;5056419;28;20266;-82
2022/09/11 09:09:02;;;;;;;1.37;1.27;;;15.80;99.90;;;;;;5057110;28;20172;-84
2022/09/11 09:11:46;;;;;;;1.70;1.40;;;15.80;99.90;;;;;;5055719;28;20203;-84
2022/09/11 09:14:49;;;;;;;2.50;1.70;;;15.80;99.90;;;;;;5056097;28;20610;-80
2022/09/11 09:17:20;;;;;;;1.57;1.43;;;15.70;99.90;;;;;;5055579;28;20686;-83
2022/09/11 09:19:56;;;;;;;4.67;1.83;;;15.80;99.90;;;;;;5056583;28;20178;-81
2022/09/11 09:22:56;;;;;;;2.67;1.70;;;15.90;99.90;;;;;;5056067;28;20202;-82
2022/09/11 09:25:35;;;;;;;3.93;2.07;;;15.90;99.90;;;;;;5059052;28;20170;-84
2022/09/11 09:28:06;;;;;;;2.93;1.77;;;15.80;99.90;;;;;;5059098;28;20230;-82
2022/09/11 09:30:43;;;;;;;1.90;1.60;;;15.70;99.90;;;;;;5058450;28;20209;-82
2022/09/11 09:33:22;;;;;;;4.33;2.10;;;15.70;99.90;;;;;;5059897;28;20197;-83
2022/09/11 09:35:48;;;;;;;3.50;1.93;;;15.70;99.90;;;;;;5059575;28;20204;-81
2022/09/11 09:38:15;;;;;;;4.03;2.53;;;15.80;99.90;;;;;;5059833;28;20177;-82
2022/09/11 09:40:56;;;;;;;3.40;2.20;;;15.70;99.90;;;;;;5059857;28;20231;-83
2022/09/11 09:43:36;;;;;;;2.63;1.70;;;15.70;99.90;;;;;;5060586;28;20201;-82
2022/09/11 09:46:11;;;;;;;3.93;1.93;;;15.60;99.90;;;;;;5061250;28;20569;-82
2022/09/11 09:48:39;;;;;;;2.97;1.90;;;15.70;99.90;;;;;;5059853;28;20185;-83
2022/09/11 09:51:05;;;;;;;2.23;2.00;;;15.80;99.90;;;;;;5056700;28;20231;-82
2022/09/11 09:54:05;;;;;;;4.10;2.10;;;15.80;99.90;;;;;;5054828;28;20213;-83
2022/09/11 09:56:36;;;;;;;1.63;1.53;;;15.80;99.90;;;;;;5054684;28;20640;-83
2022/09/11 09:59:17;;;;;;;2.30;1.80;;;15.90;99.90;;;;;;5056717;28;20592;-82
2022/09/11 10:01:53;;;;;;;3.03;1.63;;;16.20;99.90;;;;;;5055201;28;20268;-82
2022/09/11 10:04:22;;;;;;;3.37;2.00;;;16.30;99.90;;;;;;5056756;28;20173;-82
2022/09/11 10:06:51;;;;;;;2.77;2.20;;;16.30;99.90;;;;;;5055165;28;20188;-83
2022/09/11 10:09:28;;;;;;;6.43;1.80;;;16.40;99.90;;;;;;5054961;28;20183;-83
2022/09/11 10:12:01;;;;;;;3.87;1.83;;;16.50;99.90;;;;;;5054983;28;20209;-83
2022/09/11 10:14:31;;;;;;;3.37;2.13;;;16.40;99.90;;;;;;5056147;28;20197;-81
2022/09/11 10:17:01;;;;;;;6.67;3.17;;;16.30;99.90;;;;;;5055695;28;20189;-81
2022/09/11 10:19:40;;;;;;;3.33;2.10;;;16.20;99.90;;;;;;5056475;28;20173;-85
2022/09/11 10:22:29;;;;;;;2.93;2.00;;;15.90;99.90;;;;;;5055772;28;20530;-84
2022/09/11 10:24:59;;;;;;;2.50;1.97;;;15.80;99.90;;;;;;5054356;28;20307;-84
2022/09/11 10:27:26;;;;;;;1.80;1.70;;;15.70;99.90;;;;;;5055345;28;20179;-85
2022/09/11 10:29:53;;;;;;;3.50;2.20;;;15.70;99.90;;;;;;5056334;28;20227;-85
2022/09/11 10:32:21;;;;;;;139.73;97.27;;;15.60;99.90;;;;;;5055595;28;20689;-85
2022/09/11 10:34:47;;;;;;;26.63;19.57;;;15.60;99.90;;;;;;5054697;28;20211;-84
2022/09/11 10:37:13;;;;;;;8.47;7.60;;;15.50;99.90;;;;;;5053585;28;20186;-84
2022/09/11 10:39:41;;;;;;;5.43;2.70;;;15.60;99.90;;;;;;5055069;28;20181;-85
2022/09/11 10:42:15;;;;;;;2.33;1.87;;;15.60;99.90;;;;;;5055837;28;20194;-85
2022/09/11 10:44:43;;;;;;;5.00;1.97;;;15.70;99.90;;;;;;5055021;28;20181;-86
2022/09/11 10:47:23;;;;;;;4.60;2.00;;;15.90;99.90;;;;;;5054131;28;20212;-85
2022/09/11 10:50:09;;;;;;;4.13;2.30;;;15.90;99.90;;;;;;5058460;28;20169;-82
2022/09/11 10:53:01;;;;;;;6.50;3.50;;;16.20;99.90;;;;;;5060117;28;20220;-84
2022/09/11 10:55:37;;;;;;;4.03;2.90;;;16.40;99.90;;;;;;5058911;28;20521;-85
2022/09/11 10:58:16;;;;;;;3.20;2.40;;;16.60;99.90;;;;;;5059179;28;20212;-83
2022/09/11 11:00:43;;;;;;;3.80;2.10;;;17.10;99.90;;;;;;5059225;28;20202;-83
2022/09/11 11:03:17;;;;;;;3.77;1.67;;;17.00;99.90;;;;;;5059961;28;20266;-83
2022/09/11 11:06:22;;;;;;;4.63;2.17;;;17.20;99.90;;;;;;5059245;28;20296;-86
2022/09/11 11:09:05;;;;;;;5.37;4.67;;;17.10;99.90;;;;;;5042813;28;20183;-86
2022/09/11 11:11:34;;;;;;;8.87;8.00;;;17.20;99.90;;;;;;5060430;28;20217;-84
2022/09/11 11:14:23;;;;;;;3.67;2.87;;;17.20;99.90;;;;;;5059596;28;20176;-81
2022/09/11 11:17:06;;;;;;;4.47;2.17;;;17.40;99.90;;;;;;5059385;28;20241;-84
2022/09/11 11:19:34;;;;;;;2.77;1.60;;;17.40;99.90;;;;;;5060507;28;20151;-86
2022/09/11 11:22:12;;;;;;;2.97;1.87;;;17.90;99.90;;;;;;5061218;28;20211;-86
2022/09/11 11:25:04;;;;;;;2.20;1.40;;;18.00;99.90;;;;;;5059387;28;20200;-83
2022/09/11 11:28:03;;;;;;;2.17;1.70;;;18.20;99.90;;;;;;5059210;28;20198;-85
2022/09/11 11:30:57;;;;;;;3.17;1.63;;;18.10;99.90;;;;;;5059284;28;20182;-86
2022/09/11 11:33:36;;;;;;;3.10;1.80;;;18.00;99.90;;;;;;5060341;28;20184;-83
2022/09/11 11:36:29;;;;;;;2.80;1.43;;;18.10;99.90;;;;;;5057995;28;20228;-83
2022/09/11 11:39:00;;;;;;;3.00;1.97;;;17.80;99.90;;;;;;5060503;28;20569;-84
2022/09/11 11:41:34;;;;;;;2.17;1.80;;;17.80;99.90;;;;;;5062815;28;20198;-84
2022/09/11 11:44:09;;;;;;;2.70;1.70;;;17.90;99.90;;;;;;5063190;28;20306;-84
2022/09/11 11:46:39;;;;;;;2.90;1.60;;;18.40;99.90;;;;;;5063754;28;20242;-83
2022/09/11 11:49:11;;;;;;;1.97;1.50;;;18.90;99.90;;;;;;5064175;28;20175;-83
2022/09/11 11:51:51;;;;;;;3.93;1.83;;;19.10;99.90;;;;;;5063708;28;20204;-86
2022/09/11 11:54:25;;;;;;;2.63;1.50;;;19.10;99.90;;;;;;5063410;28;20200;-85
2022/09/11 11:56:55;;;;;;;2.23;1.50;;;19.10;99.90;;;;;;5062539;28;20185;-83
2022/09/11 12:00:07;;;;;;;1.80;1.60;;;19.00;99.90;;;;;;5061245;28;20238;-85
2022/09/11 12:02:48;;;;;;;2.53;1.50;;;20.20;99.90;;;;;;5048903;28;20217;-84
2022/09/11 12:05:19;;;;;;;1.83;1.50;;;20.60;99.90;;;;;;5061948;28;20518;-84
2022/09/11 12:07:46;;;;;;;2.77;1.37;;;20.30;99.90;;;;;;5059571;28;20162;-83
2022/09/11 12:10:39;;;;;;;2.57;1.30;;;19.80;99.90;;;;;;5058672;28;20179;-83
2022/09/11 12:13:17;;;;;;;1.63;1.20;;;19.30;99.90;;;;;;5058587;28;20252;-85
2022/09/11 12:16:04;;;;;;;3.23;1.30;;;19.10;99.90;;;;;;5059076;28;20170;-84
2022/09/11 12:18:30;;;;;;;4.77;1.27;;;18.90;99.90;;;;;;5059196;28;20166;-86
2022/09/11 12:21:25;;;;;;;1.43;1.30;;;18.80;99.90;;;;;;5057894;28;20182;-86
2022/09/11 12:23:56;;;;;;;1.93;1.33;;;18.90;99.90;;;;;;5057394;28;20242;-85
2022/09/11 12:26:24;;;;;;;1.37;1.27;;;18.90;99.90;;;;;;5057785;28;20181;-85
2022/09/11 12:29:19;;;;;;;1.50;1.40;;;18.90;99.90;;;;;;5058340;28;20181;-84
2022/09/11 12:31:50;;;;;;;1.87;1.20;;;18.50;99.90;;;;;;5049059;28;20682;-84
2022/09/11 12:34:18;;;;;;;1.87;1.27;;;18.40;99.90;;;;;;5058998;28;20173;-84
2022/09/11 12:36:56;;;;;;;2.43;1.47;;;18.10;99.90;;;;;;5057375;28;20182;-84
2022/09/11 12:39:33;;;;;;;3.53;1.90;;;18.10;99.90;;;;;;5057843;28;20279;-83
2022/09/11 12:42:37;;;;;;;4.00;2.37;;;17.80;99.90;;;;;;5056838;28;20204;-82
2022/09/11 12:45:04;;;;;;;1.90;1.60;;;17.70;99.90;;;;;;5039440;28;20217;-81
2022/09/11 12:47:37;;;;;;;2.07;1.70;;;17.40;99.90;;;;;;5038453;28;20184;-82
2022/09/11 12:50:17;;;;;;;4.17;1.97;;;17.00;99.90;;;;;;5045913;28;20277;-82
2022/09/11 12:52:42;;;;;;;2.20;2.00;;;16.60;99.90;;;;;;5056056;28;20247;-84
2022/09/11 12:55:38;;;;;;;6.67;2.00;;;16.50;99.90;;;;;;5057726;28;20598;-84
2022/09/11 12:58:21;;;;;;;3.00;2.77;;;16.40;99.90;;;;;;5056206;28;20185;-84
2022/09/11 13:00:49;;;;;;;7.50;5.67;;;16.50;99.90;;;;;;5057573;28;20175;-84
2022/09/11 13:03:26;;;;;;;4.43;3.30;;;16.50;99.90;;;;;;5057348;28;20687;-84
2022/09/11 13:06:06;;;;;;;3.00;2.40;;;16.50;99.90;;;;;;5056220;28;20200;-83
2022/09/11 13:08:54;;;;;;;2.37;1.80;;;16.50;99.90;;;;;;5056037;28;20624;-82
2022/09/11 13:11:40;;;;;;;1.93;1.77;;;16.60;99.90;;;;;;5052558;28;20241;-83
2022/09/11 13:14:27;;;;;;;2.50;1.80;;;16.60;99.90;;;;;;5056341;28;20644;-84
2022/09/11 13:17:11;;;;;;;1.57;1.47;;;16.60;99.90;;;;;;5057927;28;20219;-83
2022/09/11 13:19:38;;;;;;;2.77;1.83;;;16.60;99.90;;;;;;5059110;28;20159;-82
2022/09/11 13:22:24;;;;;;;2.43;1.70;;;16.70;99.90;;;;;;5061020;28;20186;-81
2022/09/11 13:25:03;;;;;;;4.93;1.80;;;16.70;99.90;;;;;;5055350;28;20174;-83
2022/09/11 13:27:29;;;;;;;2.00;1.80;;;16.90;99.90;;;;;;5056707;28;20155;-81
2022/09/11 13:29:57;;;;;;;2.87;1.70;;;16.90;99.90;;;;;;5055500;28;20723;-83
2022/09/11 13:32:23;;;;;;;2.40;2.20;;;17.00;99.90;;;;;;5054935;28;20232;-83
2022/09/11 13:34:57;;;;;;;3.20;1.87;;;17.10;99.90;;;;;;5057129;28;20190;-84
2022/09/11 13:37:38;;;;;;;2.67;1.93;;;17.20;99.90;;;;;;5055314;28;20198;-82
2022/09/11 13:40:06;;;;;;;3.27;1.70;;;17.30;99.90;;;;;;5055201;28;20177;-84
2022/09/11 13:42:32;;;;;;;2.73;1.80;;;17.60;99.90;;;;;;5055426;28;20205;-84
2022/09/11 13:45:00;;;;;;;2.37;1.93;;;18.40;99.90;;;;;;5055472;28;20178;-83
2022/09/11 13:47:30;;;;;;;2.63;1.53;;;20.00;99.90;;;;;;5055073;28;20190;-84
2022/09/11 13:50:08;;;;;;;2.77;1.77;;;21.90;99.90;;;;;;5055466;28;20187;-83
2022/09/11 13:52:35;;;;;;;2.37;1.20;;;22.80;99.90;;;;;;5056710;28;20212;-83
2022/09/11 13:55:09;;;;;;;1.53;1.40;;;22.00;99.90;;;;;;5056830;28;20176;-86
2022/09/11 13:57:50;;;;;;;1.73;1.63;;;21.30;99.90;;;;;;5055589;28;20535;-85
2022/09/11 14:00:42;;;;;;;1.20;1.10;;;20.30;99.90;;;;;;5056909;28;20706;-84
2022/09/11 14:03:26;;;;;;;1.67;1.33;;;19.50;99.90;;;;;;5054629;28;20263;-86
2022/09/11 14:06:16;;;;;;;2.37;1.80;;;19.00;99.90;;;;;;5055352;28;20635;-86
2022/09/11 14:08:55;;;;;;;1.47;1.27;;;18.70;99.90;;;;;;5054926;28;20174;-82
2022/09/11 14:11:30;;;;;;;1.53;1.43;;;19.50;99.90;;;;;;5055101;28;20201;-84
2022/09/11 14:13:55;;;;;;;1.67;1.33;;;19.90;99.90;;;;;;5055831;28;20180;-85
2022/09/11 14:16:24;;;;;;;2.27;1.50;;;22.20;99.90;;;;;;5056379;28;20173;-84
2022/09/11 14:19:11;;;;;;;1.40;1.30;;;22.30;99.90;;;;;;5054966;28;20176;-84
2022/09/11 14:21:39;;;;;;;2.30;1.70;;;24.20;99.90;;;;;;5055689;28;20189;-86
2022/09/11 14:24:25;;;;;;;2.00;1.33;;;24.10;99.90;;;;;;5056702;28;20182;-85
2022/09/11 14:26:51;;;;;;;1.53;1.30;;;24.40;99.90;;;;;;5058460;28;20173;-84
2022/09/11 14:29:30;;;;;;;1.50;1.10;;;24.00;99.90;;;;;;5056553;28;20678;-85
2022/09/11 14:32:30;;;;;;;1.73;1.40;;;22.30;99.90;;;;;;5056019;28;20240;-84
2022/09/11 14:34:57;;;;;;;2.20;1.53;;;21.60;99.90;;;;;;5056073;28;20169;-85
2022/09/11 14:37:25;;;;;;;1.43;1.17;;;20.70;99.90;;;;;;5057562;28;20185;-84
2022/09/11 14:39:57;;;;;;;1.70;1.40;;;19.80;99.90;;;;;;5057895;28;20648;-85
2022/09/11 14:42:27;;;;;;;4.53;1.80;;;18.70;99.90;;;;;;5054664;28;20193;-83
2022/09/11 14:44:53;;;;;;;1.40;1.30;;;18.70;99.90;;;;;;5055531;28;20176;-83
2022/09/11 14:47:23;;;;;;;2.10;1.57;;;18.20;99.90;;;;;;5054186;28;20216;-84
2022/09/11 14:49:52;;;;;;;3.67;1.80;;;18.10;99.90;;;;;;5056224;28;20170;-83
2022/09/11 14:52:20;;;;;;;1.90;1.50;;;18.00;99.90;;;;;;5053982;28;20710;-84
2022/09/11 14:54:46;;;;;;;4.40;1.87;;;18.20;99.90;;;;;;5054561;28;20174;-84
2022/09/11 14:57:16;;;;;;;2.40;1.70;;;19.00;99.90;;;;;;5056034;28;20180;-82
2022/09/11 14:59:42;;;;;;;1.80;1.70;;;20.00;99.90;;;;;;5056036;28;20210;-82
2022/09/11 15:02:20;;;;;;;1.97;1.43;;;20.90;99.90;;;;;;5053839;28;20229;-83
2022/09/11 15:04:46;;;;;;;1.83;1.63;;;;;;;;;;5055992;28;20527;-83
2022/09/11 15:07:14;;;;;;;1.40;1.30;;;22.00;99.90;;;;;;5054680;28;20239;-82
2022/09/11 15:09:40;;;;;;;1.30;1.20;;;21.90;99.90;;;;;;5054725;28;20178;-85
2022/09/11 15:12:07;;;;;;;3.83;1.23;;;21.40;99.90;;;;;;5055029;28;20201;-85
2022/09/11 15:14:33;;;;;;;1.70;1.33;;;21.00;99.90;;;;;;5059091;28;20173;-82
2022/09/11 15:17:04;;;;;;;1.67;1.00;;;19.60;99.90;;;;;;5058705;28;20642;-84
2022/09/11 15:19:30;;;;;;;1.83;1.30;;;19.50;99.90;;;;;;5058799;28;20174;-83
2022/09/11 15:21:57;;;;;;;2.43;1.30;;;18.80;99.90;;;;;;5062207;28;20595;-83
2022/09/11 15:24:24;;;;;;;1.40;1.20;;;18.70;99.90;;;;;;5065308;28;20173;-84
2022/09/11 15:26:51;;;;;;;1.83;1.40;;;18.30;99.90;;;;;;5059412;28;20186;-84
2022/09/11 15:29:17;;;;;;;1.40;1.30;;;18.10;99.90;;;;;;5058684;28;20185;-85
2022/09/11 15:31:43;;;;;;;2.07;1.50;;;17.80;99.90;;;;;;5060077;28;20196;-86
2022/09/11 15:34:09;;;;;;;1.93;1.60;;;17.90;99.90;;;;;;5058105;28;20539;-84
2022/09/11 15:36:38;;;;;;;2.10;1.47;;;17.90;99.90;;;;;;5060009;28;20167;-85
2022/09/11 15:39:05;;;;;;;3.17;1.73;;;17.60;99.90;;;;;;5059548;28;20171;-84
2022/09/11 15:41:32;;;;;;;2.87;1.80;;;;;;;;;;5060322;28;20198;-84
2022/09/11 15:43:58;;;;;;;1.90;1.50;;;;;;;;;;5058293;28;20182;-84
2022/09/11 15:46:25;;;;;;;1.30;1.20;;;17.50;99.90;;;;;;5058764;28;20541;-83
2022/09/11 15:48:51;;;;;;;2.77;1.40;;;17.40;99.90;;;;;;5058554;28;20664;-83
2022/09/11 15:51:19;;;;;;;3.50;1.90;;;17.20;99.90;;;;;;5059889;28;20198;-84
2022/09/11 15:53:47;;;;;;;3.10;1.63;;;17.30;99.90;;;;;;5058122;28;20206;-84
2022/09/11 15:56:15;;;;;;;1.90;1.70;;;17.20;99.90;;;;;;5059595;28;20178;-85
2022/09/11 15:58:43;;;;;;;5.17;1.73;;;17.50;99.90;;;;;;5057936;28;20278;-86
2022/09/11 16:01:17;;;;;;;2.50;1.50;;;17.30;99.90;;;;;;5057617;28;20228;-86
2022/09/11 16:03:43;;;;;;;1.63;1.30;;;;;;;;;;5057577;28;20182;-85
2022/09/11 16:06:09;;;;;;;2.07;1.30;;;;;;;;;;5057698;28;20637;-85
2022/09/11 16:08:35;;;;;;;2.70;1.53;;;17.10;99.90;;;;;;5057105;28;20178;-84
2022/09/11 16:11:04;;;;;;;1.90;1.70;;;17.20;99.90;;;;;;5058721;28;20248;-84
2022/09/11 16:13:31;;;;;;;2.47;1.80;;;;;;;;;;5058618;28;20197;-85
2022/09/11 16:16:04;;;;;;;5.93;2.13;;;17.10;99.90;;;;;;5058441;28;20315;-86
2022/09/11 16:18:30;;;;;;;3.97;2.00;;;;;;;;;;5058217;28;20171;-83
2022/09/11 16:20:59;;;;;;;2.70;1.83;;;17.10;99.90;;;;;;5056930;28;20178;-84
2022/09/11 16:23:26;;;;;;;1.83;1.53;;;17.10;99.90;;;;;;5056646;28;20180;-85
2022/09/11 16:25:53;;;;;;;3.10;1.17;;;17.40;99.90;;;;;;5056384;28;20234;-84
2022/09/11 16:28:20;;;;;;;2.07;1.50;;;17.20;99.90;;;;;;5057335;28;20176;-85
2022/09/11 16:30:51;;;;;;;2.07;1.47;;;17.00;99.90;;;;;;5057697;28;20183;-84
2022/09/11 16:33:17;;;;;;;3.10;1.50;;;17.00;99.90;;;;;;5058321;28;20251;-86
2022/09/11 16:35:44;;;;;;;2.20;1.43;;;;;;;;;;5058204;28;20542;-85
2022/09/11 16:38:09;;;;;;;4.73;1.70;;;17.20;99.90;;;;;;5057849;28;20634;-86
2022/09/11 16:40:35;;;;;;;5.93;4.53;;;17.20;99.90;;;;;;5058096;28;20179;-85
2022/09/11 16:43:02;;;;;;;6.77;4.33;;;17.10;99.90;;;;;;5057961;28;20253;-85
2022/09/11 16:45:28;;;;;;;5.37;4.00;;;17.10;99.90;;;;;;5059128;28;20248;-84
2022/09/11 16:47:55;;;;;;;19.60;16.90;;;17.00;99.90;;;;;;5058827;28;20676;-85
2022/09/11 16:50:22;;;;;;;8.90;6.60;;;17.00;99.90;;;;;;5059206;28;20197;-84
2022/09/11 16:52:49;;;;;;;10.77;7.17;;;17.00;99.90;;;;;;5056805;28;20719;-85
2022/09/11 16:55:15;;;;;;;3.13;1.93;;;17.00;99.90;;;;;;5057719;28;20551;-84
2022/09/11 16:57:43;;;;;;;2.90;1.50;;;16.90;99.90;;;;;;5058084;28;20183;-84
2022/09/11 17:00:10;;;;;;;2.60;1.53;;;16.80;99.90;;;;;;5060831;28;20251;-86
2022/09/11 17:02:36;;;;;;;2.80;1.50;;;16.70;99.90;;;;;;5060378;28;20196;-86
2022/09/11 17:05:03;;;;;;;3.83;1.60;;;16.80;99.90;;;;;;5058518;28;20185;-85
2022/09/11 17:07:30;;;;;;;1.50;1.40;;;16.40;99.90;;;;;;5057238;28;20177;-86
2022/09/11 17:09:55;;;;;;;3.30;1.47;;;16.60;99.90;;;;;;5059503;28;20236;-86
2022/09/11 17:12:21;;;;;;;1.73;1.23;;;16.40;99.90;;;;;;5058857;28;20247;-87
2022/09/11 17:14:47;;;;;;;1.33;1.23;;;16.60;99.90;;;;;;5062548;28;20168;-86
2022/09/11 17:17:12;;;;;;;1.70;1.50;;;16.50;99.90;;;;;;5059447;28;20177;-85
2022/09/11 17:19:39;;;;;;;2.57;1.70;;;;;;;;;;5059892;28;20178;-84
2022/09/11 17:22:05;;;;;;;2.10;1.80;;;16.40;99.90;;;;;;5059749;28;20198;-84
2022/09/11 17:24:31;;;;;;;2.77;2.20;;;16.30;99.90;;;;;;5060179;28;20182;-82
2022/09/11 17:26:56;;;;;;;2.67;1.93;;;16.30;99.90;;;;;;5060652;28;20540;-82
2022/09/11 17:29:22;;;;;;;3.47;2.20;;;16.30;99.90;;;;;;5060462;28;20187;-85
2022/09/11 17:31:49;;;;;;;2.93;2.47;;;;;;;;;;5059983;28;20264;-84
2022/09/11 17:34:15;;;;;;;2.97;2.40;;;16.10;99.90;;;;;;5062238;28;20538;-83
2022/09/11 17:36:42;;;;;;;2.23;2.03;;;16.10;99.90;;;;;;5059594;28;20178;-84
2022/09/11 17:39:08;;;;;;;3.67;2.13;;;;;;;;;;5061541;28;20171;-83
2022/09/11 17:41:34;;;;;;;4.33;2.00;;;15.90;99.90;;;;;;5059628;28;20191;-87
2022/09/11 17:44:00;;;;;;;2.73;1.90;;;;;;;;;;5058449;28;20264;-85
2022/09/11 17:46:27;;;;;;;3.30;2.63;;;;;;;;;;5060072;28;20175;-86
2022/09/11 17:48:52;;;;;;;5.40;2.73;;;15.70;99.90;;;;;;5058825;28;20185;-84
2022/09/11 17:51:24;;;;;;;3.47;2.70;;;15.60;99.90;;;;;;5059622;28;20199;-85
2022/09/11 17:53:52;;;;;;;3.30;2.50;;;15.50;99.90;;;;;;5060270;28;20217;-86